createdAt,value
2018-12-22T00:02:15.808Z,4.83
2018-12-22T00:04:44.335Z,3.77
2018-12-22T00:07:12.322Z,5.17
2018-12-22T00:09:40.345Z,4.47
2018-12-22T00:12:08.354Z,4.53
2018-12-22T00:14:36.323Z,6.00
2018-12-22T00:17:04.368Z,5.27
2018-12-22T00:19:32.445Z,4.23
2018-12-22T00:22:00.424Z,3.43
2018-12-22T00:24:28.377Z,2.73
2018-12-22T00:26:56.279Z,2.73
2018-12-22T00:29:24.295Z,2.87
2018-12-22T00:31:52.375Z,3.27
2018-12-22T00:34:20.355Z,2.40
2018-12-22T00:36:48.498Z,3.73
2018-12-22T00:39:16.551Z,3.07
2018-12-22T00:41:44.528Z,4.07
2018-12-22T00:44:12.564Z,3.13
2018-12-22T00:46:40.572Z,4.00
2018-12-22T00:49:08.511Z,3.50
2018-12-22T00:51:36.481Z,3.17
2018-12-22T00:54:04.470Z,4.63
2018-12-22T00:56:32.462Z,3.33
2018-12-22T00:59:00.587Z,3.10
2018-12-22T01:01:28.547Z,2.70
2018-12-22T01:03:56.469Z,2.53
2018-12-22T01:06:24.365Z,4.17
2018-12-22T01:08:52.348Z,4.37
2018-12-22T01:11:20.443Z,3.20
2018-12-22T01:13:48.414Z,3.17
2018-12-22T01:16:16.334Z,3.17
2018-12-22T01:18:44.322Z,4.20
2018-12-22T01:21:12.345Z,3.90
2018-12-22T01:23:40.328Z,2.93
2018-12-22T01:26:08.277Z,3.03
2018-12-22T01:28:39.570Z,3.23
2018-12-22T01:31:06.426Z,2.60
2018-12-22T01:33:34.398Z,2.40
2018-12-22T01:36:02.467Z,3.30
2018-12-22T01:38:30.499Z,3.00
2018-12-22T01:40:58.450Z,3.23
2018-12-22T01:43:26.369Z,2.07
2018-12-22T01:45:54.352Z,2.13
2018-12-22T01:48:22.330Z,2.90
2018-12-22T01:50:50.302Z,3.27
2018-12-22T01:53:18.273Z,2.27
2018-12-22T01:55:46.804Z,3.73
2018-12-22T01:58:14.752Z,3.03
2018-12-22T02:00:42.747Z,2.80
2018-12-22T02:03:10.703Z,3.10
2018-12-22T02:05:38.625Z,2.73
2018-12-22T02:08:06.824Z,3.53
2018-12-22T02:10:34.782Z,2.50
2018-12-22T02:13:02.771Z,2.50
2018-12-22T02:15:30.707Z,2.70
2018-12-22T02:17:58.672Z,2.53
2018-12-22T02:20:26.647Z,2.60
2018-12-22T02:22:54.599Z,3.73
2018-12-22T02:25:22.588Z,3.30
2018-12-22T02:27:50.677Z,4.27
2018-12-22T02:30:18.651Z,3.40
2018-12-22T02:32:46.591Z,3.20
2018-12-22T02:35:14.569Z,2.63
2018-12-22T02:37:42.505Z,3.10
2018-12-22T02:40:10.477Z,2.80
2018-12-22T02:42:38.457Z,2.87
2018-12-22T02:45:06.719Z,3.20
2018-12-22T02:47:34.682Z,2.40
2018-12-22T02:50:02.626Z,2.20
2018-12-22T02:52:30.596Z,2.63
2018-12-22T02:54:58.536Z,1.60
2018-12-22T02:57:26.491Z,2.93
2018-12-22T02:59:54.496Z,2.77
2018-12-22T03:02:22.513Z,1.80
2018-12-22T03:04:50.441Z,2.70
2018-12-22T03:07:18.415Z,2.33
2018-12-22T03:09:46.358Z,2.30
2018-12-22T03:12:14.333Z,2.77
2018-12-22T03:14:42.298Z,3.37
2018-12-22T03:17:10.202Z,2.83
2018-12-22T03:19:38.148Z,2.90
2018-12-22T03:22:06.287Z,3.73
2018-12-22T03:24:34.434Z,3.30
2018-12-22T03:27:02.904Z,2.50
2018-12-22T03:29:30.843Z,4.77
2018-12-22T03:31:58.869Z,2.80
2018-12-22T03:34:26.858Z,3.87
2018-12-22T03:36:54.799Z,3.43
2018-12-22T03:39:22.789Z,3.03
2018-12-22T03:41:50.702Z,1.83
2018-12-22T03:44:18.639Z,3.27
2018-12-22T03:46:46.638Z,2.40
2018-12-22T03:49:14.590Z,2.20
2018-12-22T03:51:42.476Z,2.70
2018-12-22T03:54:10.396Z,2.77
2018-12-22T03:56:38.331Z,2.57
2018-12-22T03:59:06.372Z,2.40
2018-12-22T04:01:34.330Z,2.63
2018-12-22T04:04:02.252Z,4.07
2018-12-22T04:06:30.251Z,3.47
2018-12-22T04:08:58.168Z,3.13
2018-12-22T04:11:26.113Z,2.93
2018-12-22T04:13:54.050Z,3.60
2018-12-22T04:16:21.957Z,3.03
2018-12-22T04:18:49.987Z,2.37
2018-12-22T04:21:17.935Z,3.63
2018-12-22T04:23:45.889Z,3.40
2018-12-22T04:26:13.858Z,4.30
2018-12-22T04:28:41.814Z,3.90
2018-12-22T04:31:09.794Z,3.77
2018-12-22T04:33:37.829Z,5.03
2018-12-22T04:36:05.745Z,3.63
2018-12-22T04:38:33.704Z,4.93
2018-12-22T04:41:01.720Z,3.10
2018-12-22T04:43:29.676Z,2.50
2018-12-22T04:45:57.700Z,4.17
2018-12-22T04:48:25.637Z,3.90
2018-12-22T04:50:53.573Z,2.57
2018-12-22T04:53:21.465Z,2.87
2018-12-22T04:55:49.414Z,3.63
2018-12-22T04:58:17.334Z,3.83
2018-12-22T05:00:45.290Z,3.33
2018-12-22T05:03:13.252Z,1.97
2018-12-22T05:05:41.246Z,3.23
2018-12-22T05:08:09.208Z,4.17
2018-12-22T05:10:37.220Z,3.13
2018-12-22T05:13:05.205Z,4.10
2018-12-22T05:15:33.212Z,2.23
2018-12-22T05:18:01.366Z,3.53
2018-12-22T05:20:29.339Z,3.73
2018-12-22T05:22:57.321Z,3.30
2018-12-22T05:25:25.256Z,2.73
2018-12-22T05:27:53.198Z,2.33
2018-12-22T05:30:21.229Z,2.40
2018-12-22T05:32:49.269Z,3.13
2018-12-22T05:35:17.206Z,3.13
2018-12-22T05:37:45.267Z,3.17
2018-12-22T05:40:13.472Z,2.47
2018-12-22T05:42:41.484Z,3.30
2018-12-22T05:45:09.535Z,3.10
2018-12-22T05:47:37.495Z,2.60
2018-12-22T05:50:05.925Z,3.07
2018-12-22T05:52:33.829Z,2.83
2018-12-22T05:55:01.761Z,3.13
2018-12-22T05:57:29.780Z,3.93
2018-12-22T06:00:00.807Z,4.10
2018-12-22T06:02:27.669Z,3.53
2018-12-22T06:04:55.645Z,3.30
2018-12-22T06:07:23.637Z,4.37
2018-12-22T06:09:51.608Z,3.50
2018-12-22T06:12:19.573Z,3.27
2018-12-22T06:14:47.641Z,3.53
2018-12-22T06:17:16.373Z,3.13
2018-12-22T06:19:44.309Z,4.53
2018-12-22T06:22:12.596Z,4.77
2018-12-22T06:24:40.556Z,4.47
2018-12-22T06:27:08.974Z,4.37
2018-12-22T06:29:37.054Z,4.33
2018-12-22T06:32:05.031Z,4.97
2018-12-22T06:34:33.294Z,5.27
2018-12-22T06:37:01.311Z,4.77
2018-12-22T06:39:29.730Z,5.00
2018-12-22T06:41:58.065Z,5.33
2018-12-22T06:44:26.569Z,4.63
2018-12-22T06:46:54.580Z,4.17
2018-12-22T06:49:22.715Z,5.57
2018-12-22T06:51:50.702Z,8.63
2018-12-22T06:54:18.985Z,7.47
2018-12-22T06:56:47.001Z,8.83
2018-12-22T06:59:15.360Z,7.63
2018-12-22T07:01:43.404Z,6.70
2018-12-22T07:04:11.662Z,5.57
2018-12-22T07:06:39.772Z,5.97
2018-12-22T07:09:08.048Z,5.60
2018-12-22T07:11:36.617Z,6.20
2018-12-22T07:14:04.659Z,6.17
2018-12-22T07:16:33.252Z,6.07
2018-12-22T07:19:01.262Z,6.30
2018-12-22T07:21:29.659Z,5.70
2018-12-22T07:23:57.649Z,6.50
2018-12-22T07:26:25.842Z,6.43
2018-12-22T07:28:54.069Z,6.03
2018-12-22T07:31:22.091Z,4.63
2018-12-22T07:33:50.298Z,5.13
2018-12-22T07:36:19.166Z,6.17
2018-12-22T07:38:48.526Z,7.47
2018-12-22T07:41:16.630Z,9.23
2018-12-22T07:43:44.648Z,7.60
2018-12-22T07:46:12.712Z,10.73
2018-12-22T07:48:40.753Z,9.33
2018-12-22T07:51:08.839Z,9.07
2018-12-22T07:53:36.936Z,7.13
2018-12-22T07:56:05.229Z,8.03
2018-12-22T07:58:33.301Z,9.53
2018-12-22T08:01:01.446Z,8.70
2018-12-22T08:03:29.497Z,9.23
2018-12-22T08:05:57.658Z,8.17
2018-12-22T08:08:25.804Z,7.33
2018-12-22T08:10:54.060Z,7.97
2018-12-22T08:13:22.176Z,6.87
2018-12-22T08:15:50.364Z,6.63
2018-12-22T08:18:18.576Z,6.37
2018-12-22T08:20:46.763Z,6.07
2018-12-22T08:23:14.819Z,7.07
2018-12-22T08:25:42.993Z,5.70
2018-12-22T08:28:11.088Z,7.67
2018-12-22T08:30:43.464Z,5.97
2018-12-22T08:33:09.535Z,8.33
2018-12-22T08:35:37.561Z,6.60
2018-12-22T08:38:05.793Z,8.30
2018-12-22T08:40:34.436Z,5.87
2018-12-22T08:43:02.571Z,5.63
2018-12-22T08:45:30.663Z,4.90
2018-12-22T08:47:59.326Z,22.23
2018-12-22T08:50:27.372Z,8.73
2018-12-22T08:52:55.887Z,6.83
2018-12-22T08:55:24.047Z,8.87
2018-12-22T08:57:52.048Z,6.17
2018-12-22T09:00:20.203Z,7.20
2018-12-22T09:02:48.598Z,13.97
2018-12-22T09:05:16.745Z,8.67
2018-12-22T09:07:44.854Z,10.37
2018-12-22T09:10:12.963Z,9.10
2018-12-22T09:12:40.972Z,9.83
2018-12-22T09:15:09.307Z,6.63
2018-12-22T09:17:37.378Z,9.47
2018-12-22T09:20:08.066Z,8.57
2018-12-22T09:22:36.257Z,7.40
2018-12-22T09:25:04.955Z,8.37
2018-12-22T09:27:33.229Z,8.20
2018-12-22T09:30:01.553Z,5.80
2018-12-22T16:07:44.266Z,19.03
2018-12-22T16:10:13.569Z,20.93
2018-12-22T16:15:39.007Z,15.60
2018-12-22T16:18:06.929Z,13.40
2018-12-22T16:20:35.007Z,11.03
2018-12-22T16:23:03.998Z,13.50
2018-12-22T16:25:32.256Z,11.07
2018-12-22T16:28:07.299Z,11.67
2018-12-22T16:30:41.631Z,9.90
2018-12-22T16:33:09.899Z,11.10
2018-12-22T16:35:38.361Z,10.73
2018-12-22T16:38:06.632Z,10.63
2018-12-22T16:40:34.924Z,9.87
2018-12-22T16:43:04.821Z,6.90
2018-12-22T16:45:33.191Z,5.03
2018-12-22T16:48:01.199Z,4.57
2018-12-22T16:50:31.520Z,4.37
2018-12-22T16:52:59.581Z,3.77
2018-12-22T16:55:28.073Z,4.57
2018-12-22T16:58:08.751Z,4.13
2018-12-22T17:00:41.563Z,4.07
2018-12-22T17:03:11.171Z,4.43
2018-12-22T17:05:39.659Z,4.40
2018-12-22T17:08:07.703Z,6.70
2018-12-22T17:10:41.973Z,4.73
2018-12-22T17:13:11.069Z,5.73
2018-12-22T17:15:42.566Z,5.90
2018-12-22T17:18:10.445Z,5.67
2018-12-22T17:20:38.487Z,3.63
2018-12-22T17:23:14.485Z,4.80
2018-12-22T17:25:52.574Z,3.90
2018-12-22T17:28:28.021Z,5.63
2018-12-22T17:30:50.867Z,5.07
2018-12-22T17:33:19.346Z,5.77
2018-12-22T17:35:47.461Z,5.90
2018-12-22T17:38:15.467Z,5.00
2018-12-22T17:40:43.446Z,4.60
2018-12-22T17:43:11.620Z,4.60
2018-12-22T17:45:39.709Z,5.27
2018-12-22T17:48:07.767Z,6.40
2018-12-22T17:50:35.821Z,5.70
2018-12-22T17:53:04.240Z,5.03
2018-12-22T17:55:32.423Z,5.77
2018-12-22T17:58:00.493Z,4.80
2018-12-22T18:00:28.861Z,5.60
2018-12-22T18:02:57.097Z,4.40
2018-12-22T18:05:25.391Z,5.47
2018-12-22T18:07:53.560Z,4.97
2018-12-22T18:10:21.810Z,5.10
2018-12-22T18:12:50.306Z,4.60
2018-12-22T18:15:20.998Z,3.77
2018-12-22T18:17:49.422Z,4.30
2018-12-22T18:20:18.066Z,4.10
2018-12-22T18:22:46.381Z,3.90
2018-12-22T18:25:16.174Z,3.73
2018-12-22T18:27:44.145Z,4.37
2018-12-22T18:30:12.677Z,4.70
2018-12-22T18:32:40.950Z,5.30
2018-12-22T18:35:10.165Z,3.80
2018-12-22T18:37:38.181Z,5.10
2018-12-22T18:40:12.162Z,4.33
2018-12-22T18:42:40.446Z,4.23
2018-12-22T18:45:10.361Z,5.00
2018-12-22T18:47:38.588Z,4.90
2018-12-22T18:50:12.982Z,4.07
2018-12-22T18:52:41.187Z,5.13
2018-12-22T18:55:09.452Z,5.13
2018-12-22T18:57:37.637Z,6.33
2018-12-22T19:00:13.618Z,10.30
2018-12-22T19:02:41.649Z,8.80
2018-12-22T19:05:09.773Z,9.50
2018-12-22T19:07:37.749Z,10.80
2018-12-22T19:10:12.601Z,9.83
2018-12-22T19:12:40.610Z,9.57
2018-12-22T19:15:08.701Z,8.20
2018-12-22T19:17:36.700Z,6.87
2018-12-22T19:20:08.295Z,7.60
2018-12-22T19:22:36.302Z,7.13
2018-12-22T19:25:04.657Z,8.50
2018-12-22T19:27:32.706Z,6.10
2018-12-22T19:30:00.785Z,5.60
2018-12-22T19:32:28.817Z,6.27
2018-12-22T19:34:56.805Z,7.07
2018-12-22T19:37:24.797Z,7.47
2018-12-22T19:39:52.798Z,7.67
2018-12-22T19:42:20.809Z,10.87
2018-12-22T19:44:48.767Z,12.63
2018-12-22T19:47:16.879Z,12.93
2018-12-22T19:49:44.848Z,10.33
2018-12-22T19:52:12.894Z,13.73
2018-12-22T19:54:40.892Z,14.20
2018-12-22T19:57:08.984Z,12.30
2018-12-22T19:59:38.709Z,12.70
2018-12-22T20:02:07.048Z,12.67
2018-12-22T20:04:35.210Z,11.13
2018-12-22T20:07:03.372Z,13.20
2018-12-22T20:09:31.301Z,13.47
2018-12-22T20:11:59.409Z,12.23
2018-12-22T20:14:27.295Z,12.70
2018-12-22T20:16:55.428Z,12.50
2018-12-22T20:19:23.398Z,10.37
2018-12-22T20:21:51.369Z,11.33
2018-12-22T20:24:19.350Z,12.00
2018-12-22T20:26:47.361Z,12.40
2018-12-22T20:29:15.343Z,12.63
2018-12-22T20:31:43.263Z,11.33
2018-12-22T20:34:11.490Z,10.37
2018-12-22T20:36:39.703Z,8.27
2018-12-22T20:39:07.792Z,8.33
2018-12-22T20:41:35.714Z,8.10
2018-12-22T20:44:03.616Z,8.17
2018-12-22T20:46:31.567Z,8.20
2018-12-22T20:48:59.445Z,8.83
2018-12-22T20:51:27.397Z,9.43
2018-12-22T20:53:55.312Z,14.63
2018-12-22T20:56:23.226Z,14.80
2018-12-22T20:58:51.217Z,14.93
2018-12-22T21:01:19.238Z,11.87
2018-12-22T21:03:47.608Z,13.10
2018-12-22T21:06:20.175Z,12.17
2018-12-22T21:08:48.232Z,11.03
2018-12-22T21:11:16.295Z,12.03
2018-12-22T21:13:44.313Z,9.73
2018-12-22T21:16:12.278Z,9.67
2018-12-22T21:18:40.273Z,7.70
2018-12-22T21:21:08.139Z,10.13
2018-12-22T21:23:36.023Z,8.23
2018-12-22T21:26:03.956Z,8.40
2018-12-22T21:28:31.813Z,6.40
2018-12-22T21:30:59.755Z,5.53
2018-12-22T21:33:27.755Z,5.27
2018-12-22T21:35:55.734Z,12.97
2018-12-22T21:38:23.770Z,13.23
2018-12-22T21:40:53.075Z,12.43
2018-12-22T21:43:21.162Z,8.77
2018-12-22T21:45:49.330Z,10.73
2018-12-22T21:48:17.306Z,8.43
2018-12-22T21:50:45.231Z,9.70
2018-12-22T21:53:13.209Z,8.10
2018-12-22T21:55:41.262Z,6.63
2018-12-22T21:58:09.481Z,6.10
2018-12-22T22:00:37.571Z,7.17
2018-12-22T22:03:05.542Z,7.70
2018-12-22T22:05:33.642Z,7.03
2018-12-22T22:08:01.626Z,6.73
2018-12-22T22:10:29.600Z,11.40
2018-12-22T22:12:57.527Z,15.50
2018-12-22T22:15:25.488Z,14.83
2018-12-22T22:17:53.516Z,13.07
2018-12-22T22:20:21.421Z,11.50
2018-12-22T22:22:49.299Z,15.07
2018-12-22T22:25:17.207Z,15.80
2018-12-22T22:27:45.048Z,14.87
2018-12-22T22:30:13.049Z,13.83
2018-12-22T22:32:41.018Z,14.13
2018-12-22T22:35:08.888Z,16.60
2018-12-22T22:37:36.841Z,16.73
2018-12-22T22:40:04.846Z,15.37
2018-12-22T22:42:32.744Z,15.73
2018-12-22T22:45:00.635Z,14.37
2018-12-22T22:47:28.531Z,16.17
2018-12-22T22:49:56.507Z,15.97
2018-12-22T22:52:24.484Z,16.20
2018-12-22T22:54:52.416Z,15.80
2018-12-22T22:57:20.335Z,14.33
2018-12-22T22:59:48.431Z,14.80
2018-12-22T23:02:16.394Z,12.97
2018-12-22T23:04:44.258Z,12.73
2018-12-22T23:07:12.191Z,12.23
2018-12-22T23:09:40.160Z,12.43
2018-12-22T23:12:08.062Z,12.67
2018-12-22T23:14:35.961Z,13.93
2018-12-22T23:17:03.903Z,10.20
2018-12-22T23:19:31.817Z,10.67
2018-12-22T23:21:59.786Z,11.97
2018-12-22T23:24:27.661Z,14.80
2018-12-22T23:26:55.710Z,14.67
2018-12-22T23:29:23.633Z,14.23
2018-12-22T23:31:51.488Z,10.67
2018-12-22T23:34:19.506Z,12.67
2018-12-22T23:36:47.380Z,12.10
2018-12-22T23:39:15.258Z,9.77
2018-12-22T23:41:43.161Z,10.47
2018-12-22T23:44:11.031Z,12.83
2018-12-22T23:46:38.978Z,10.47
2018-12-22T23:49:06.848Z,11.00
2018-12-22T23:51:34.720Z,11.97
2018-12-22T23:54:02.611Z,10.33
2018-12-22T23:56:30.523Z,9.30
2018-12-22T23:58:58.429Z,8.57
